Terminal Aerodrome Forecast
Issued by NWS Mobile, AL

Home | Current Version | Previous Version | Text Only | Print | Product List | Glossary On
Versions: 1 2 3 4 5 6 7 8 9 10 11 12 13 14
000
FTUS44 KMOB 191159
TAFPNS
TAF
KPNS 191159Z 1912/2012 34003KT P6SM SKC
     FM191800 19008KT P6SM VCTS SCT035CB BKN200
      TEMPO 1920/1924 4SM TSRA BKN025CB
     FM200200 30004KT P6SM SCT200=

USA.gov is the U.S. government's official web portal to all federal, state and local government web resources and services.